Terminal Aerodrome Forecast
Issued by NWS Jacksonville, FL

Home | Current Version | Previous Version | Text Only | Print | Product List | Glossary On
Versions: 1 2 3 4 5 6 7 8 9 10 11 12 13 14 15 16 17 18
909
FTUS42 KJAX 280244 AAB
TAFGNV
TAF AMD
KGNV 280244Z 2803/2824 19005KT P6SM VCSH BKN060 BKN100
     FM280500 23003KT P6SM SCT080 BKN200
     FM281400 26007KT P6SM SCT030=

USA.gov is the U.S. government's official web portal to all federal, state and local government web resources and services.